createdAt,value
2018-09-20T00:01:14.183Z,100111.02
2018-09-20T00:03:43.259Z,100108.84
2018-09-20T00:06:11.210Z,100108.34
2018-09-20T00:08:39.384Z,100097.21
2018-09-20T00:11:07.026Z,100104.12
2018-09-20T00:13:35.023Z,100101.44
2018-09-20T00:16:02.564Z,100098.41
2018-09-20T00:18:31.595Z,100098.73
2018-09-20T00:20:59.433Z,100093.00
2018-09-20T00:23:28.952Z,100090.47
2018-09-20T00:25:56.510Z,100092.83
2018-09-20T00:28:24.375Z,100089.31
2018-09-20T00:30:51.891Z,100079.67
2018-09-20T00:33:19.660Z,100082.55
2018-09-20T00:35:47.563Z,100079.35
2018-09-20T00:38:15.137Z,100076.30
2018-09-20T00:40:42.640Z,100077.98
2018-09-20T00:43:10.156Z,100070.06
2018-09-20T00:45:38.071Z,100067.70
2018-09-20T00:48:05.668Z,100067.53
2018-09-20T00:50:33.225Z,100066.84
2018-09-20T00:53:01.255Z,100067.67
2018-09-20T00:55:29.075Z,100059.41
2018-09-20T00:57:56.638Z,100060.41
2018-09-20T01:00:24.234Z,100061.92
2018-09-20T01:02:52.415Z,100063.97
2018-09-20T01:05:20.317Z,100066.80
2018-09-20T01:07:47.868Z,100063.94
2018-09-20T01:10:15.417Z,100061.90
2018-09-20T01:12:43.457Z,100063.58
2018-09-20T01:15:10.990Z,100070.00
2018-09-20T01:17:39.354Z,100059.86
2018-09-20T01:20:08.874Z,100059.70
2018-09-20T01:22:36.380Z,100059.87
2018-09-20T01:25:03.899Z,100065.59
2018-09-20T01:27:31.464Z,100061.02
2018-09-20T01:29:59.335Z,100057.17
2018-09-20T01:32:26.857Z,100052.78
2018-09-20T01:34:54.357Z,100061.88
2018-09-20T01:37:21.856Z,100066.45
2018-09-20T01:39:50.802Z,100063.58
2018-09-20T01:42:18.299Z,100060.58
2018-09-20T01:44:45.860Z,100061.76
2018-09-20T01:47:13.350Z,100061.59
2018-09-20T01:49:41.205Z,100060.08
2018-09-20T01:52:08.726Z,100062.60
2018-09-20T01:54:36.270Z,100063.29
2018-09-20T01:57:03.815Z,100058.58
2018-09-20T01:59:32.440Z,100066.02
2018-09-20T02:02:00.261Z,100068.55
2018-09-20T02:04:27.815Z,100075.61
2018-09-20T02:06:55.307Z,100075.11
2018-09-20T02:09:23.290Z,100075.47
2018-09-20T02:11:51.419Z,100077.50
2018-09-20T02:14:18.960Z,100073.28
2018-09-20T02:16:46.537Z,100076.83
2018-09-20T02:19:14.523Z,100070.92
2018-09-20T02:21:42.080Z,100077.69
2018-09-20T02:24:09.662Z,100083.56
2018-09-20T02:26:37.265Z,100082.72
2018-09-20T02:29:05.202Z,100087.45
2018-09-20T02:31:32.777Z,100083.75
2018-09-20T02:34:00.360Z,100080.55
2018-09-20T02:36:27.954Z,100083.56
2018-09-20T02:38:56.195Z,100084.41
2018-09-20T02:41:23.733Z,100083.89
2018-09-20T02:43:51.274Z,100079.31
2018-09-20T02:46:18.869Z,100078.46
2018-09-20T02:48:47.809Z,100077.46
2018-09-20T02:51:15.378Z,100079.16
2018-09-20T02:53:44.244Z,100082.17
2018-09-20T02:56:11.782Z,100084.50
2018-09-20T02:58:39.728Z,100080.65
2018-09-20T03:01:07.288Z,100082.48
2018-09-20T03:03:35.541Z,100080.47
2018-09-20T03:06:03.581Z,100080.14
2018-09-20T03:08:32.151Z,100078.13
2018-09-20T03:10:59.745Z,100080.12
2018-09-20T03:13:27.670Z,100075.89
2018-09-20T03:15:55.250Z,100078.78
2018-09-20T03:18:22.870Z,100072.35
2018-09-20T03:20:50.446Z,100076.58
2018-09-20T03:23:18.050Z,100076.41
2018-09-20T03:25:45.700Z,100070.16
2018-09-20T03:28:13.654Z,100063.41
2018-09-20T03:30:41.376Z,100067.60
2018-09-20T03:33:08.911Z,100063.08
2018-09-20T03:35:39.424Z,100062.89
2018-09-20T03:38:07.001Z,100069.45
2018-09-20T03:40:35.549Z,100073.16
2018-09-20T03:43:03.524Z,100070.62
2018-09-20T03:45:31.929Z,100071.29
2018-09-20T03:47:59.527Z,100071.78
2018-09-20T03:50:27.100Z,100065.72
2018-09-20T03:52:55.027Z,100070.10
2018-09-20T03:55:23.277Z,100073.77
2018-09-20T03:57:50.924Z,100068.91
2018-09-20T04:00:18.939Z,100068.05
2018-09-20T04:02:46.518Z,100066.55
2018-09-20T04:05:14.103Z,100077.33
2018-09-20T04:07:41.703Z,100076.16
2018-09-20T04:10:09.597Z,100080.38
2018-09-20T04:12:37.219Z,100076.34
2018-09-20T04:15:05.840Z,100075.82
2018-09-20T04:17:33.455Z,100072.79
2018-09-20T04:20:01.391Z,100074.63
2018-09-20T04:22:28.989Z,100067.55
2018-09-20T04:24:56.628Z,100066.06
2018-09-20T04:27:24.592Z,100072.27
2018-09-20T04:29:52.179Z,100071.45
2018-09-20T04:32:19.766Z,100067.23
2018-09-20T04:34:47.781Z,100067.23
2018-09-20T04:37:15.390Z,100073.95
2018-09-20T04:39:42.963Z,100073.25
2018-09-20T04:42:11.378Z,100074.79
2018-09-20T04:44:38.966Z,100083.53
2018-09-20T04:47:06.512Z,100085.38
2018-09-20T04:49:34.718Z,100080.69
2018-09-20T04:52:02.719Z,100085.41
2018-09-20T04:54:30.298Z,100081.85
2018-09-20T04:56:58.257Z,100079.69
2018-09-20T04:59:26.771Z,100081.03
2018-09-20T05:01:56.688Z,100082.04
2018-09-20T05:04:24.720Z,100078.64
2018-09-20T05:06:52.557Z,100077.14
2018-09-20T05:09:20.172Z,100085.38
2018-09-20T05:11:48.143Z,100090.09
2018-09-20T05:14:15.698Z,100077.79
2018-09-20T05:16:43.388Z,100081.48
2018-09-20T05:19:11.446Z,100083.84
2018-09-20T05:21:39.255Z,100089.72
2018-09-20T05:24:07.391Z,100085.53
2018-09-20T05:26:35.402Z,100086.69
2018-09-20T05:29:03.240Z,100082.84
2018-09-20T05:31:30.807Z,100078.64
2018-09-20T05:33:59.801Z,100079.66
2018-09-20T05:36:27.601Z,100072.43
2018-09-20T05:38:55.154Z,100070.41
2018-09-20T05:41:23.068Z,100073.63
2018-09-20T05:43:50.655Z,100071.44
2018-09-20T05:46:18.393Z,100073.80
2018-09-20T05:48:46.359Z,100072.97
2018-09-20T05:51:13.943Z,100068.47
2018-09-20T05:53:41.497Z,100073.69
2018-09-20T05:56:09.396Z,100071.52
2018-09-20T05:58:36.964Z,100064.77
2018-09-20T06:01:04.518Z,100062.59
2018-09-20T06:03:32.045Z,100060.07
2018-09-20T06:05:59.681Z,100060.91
2018-09-20T06:08:27.646Z,100061.43
2018-09-20T06:10:55.189Z,100059.25
2018-09-20T06:13:22.780Z,100062.45
2018-09-20T06:15:50.847Z,100068.36
2018-09-20T06:18:18.407Z,100068.01
2018-09-20T06:20:48.715Z,100063.65
2018-09-20T06:23:16.770Z,100066.00
2018-09-20T06:25:44.539Z,100064.34
2018-09-20T06:28:12.118Z,100071.39
2018-09-20T06:30:40.061Z,100072.80
2018-09-20T06:33:07.626Z,100069.75
2018-09-20T06:35:37.565Z,100067.89
2018-09-20T06:38:05.496Z,100069.09
2018-09-20T06:40:33.065Z,100066.71
2018-09-20T06:43:01.132Z,100068.73
2018-09-20T06:45:29.697Z,100068.06
2018-09-20T06:47:57.254Z,100068.22
2018-09-20T06:50:25.377Z,100069.38
2018-09-20T06:52:53.370Z,100067.52
2018-09-20T06:55:20.949Z,100073.59
2018-09-20T06:57:48.569Z,100074.59
2018-09-20T07:00:16.626Z,100075.26
2018-09-20T07:02:44.234Z,100071.67
2018-09-20T07:05:11.818Z,100079.09
2018-09-20T07:07:39.669Z,100075.88
2018-09-20T07:10:07.249Z,100072.98
2018-09-20T07:12:34.808Z,100071.44
2018-09-20T07:15:02.817Z,100073.94
2018-09-20T07:17:30.409Z,100062.39
2018-09-20T07:19:58.525Z,100059.31
2018-09-20T07:22:26.415Z,100061.43
2018-09-20T07:24:55.999Z,100050.72
2018-09-20T07:27:24.090Z,100047.45
2018-09-20T07:29:52.012Z,100050.91
2018-09-20T07:32:19.556Z,100039.64
2018-09-20T07:34:47.108Z,100044.64
2018-09-20T07:37:17.025Z,100034.39
2018-09-20T07:39:44.597Z,100030.73
2018-09-20T07:42:13.086Z,100039.06
2018-09-20T07:44:41.911Z,100040.98
2018-09-20T07:47:09.499Z,100041.05
2018-09-20T07:49:37.075Z,100036.83
2018-09-20T07:52:08.069Z,100040.11
2018-09-20T07:54:35.625Z,100028.28
2018-09-20T07:57:03.206Z,100038.13
2018-09-20T07:59:31.248Z,100027.42
2018-09-20T08:01:58.829Z,100029.30
2018-09-20T08:04:27.330Z,100029.86
2018-09-20T08:06:55.329Z,100027.52
2018-09-20T08:09:22.895Z,100035.03
2018-09-20T08:11:50.425Z,100036.05
2018-09-20T08:14:19.115Z,100033.34
2018-09-20T08:16:46.703Z,100037.55
2018-09-20T08:19:14.223Z,100034.73
2018-09-20T08:21:42.988Z,100026.98
2018-09-20T08:24:10.505Z,100034.98
2018-09-20T08:26:39.571Z,100039.05
2018-09-20T08:29:07.573Z,100036.72
2018-09-20T08:31:36.193Z,100041.53
2018-09-20T08:34:03.779Z,100031.48
2018-09-20T08:36:31.682Z,100037.42
2018-09-20T08:38:59.550Z,100042.53
2018-09-20T08:41:28.275Z,100041.44
2018-09-20T08:43:57.171Z,100039.83
2018-09-20T08:46:24.746Z,100044.67
2018-09-20T08:48:52.301Z,100052.34
2018-09-20T08:51:20.224Z,100042.94
2018-09-20T08:53:48.401Z,100036.14
2018-09-20T08:56:15.979Z,100033.12
2018-09-20T08:58:43.983Z,100036.11
2018-09-20T09:01:11.552Z,100031.02
2018-09-20T09:03:39.662Z,100030.59
2018-09-20T09:06:07.670Z,100035.11
2018-09-20T09:08:37.083Z,100035.22
2018-09-20T09:11:05.243Z,100028.53
2018-09-20T09:13:33.161Z,100034.52
2018-09-20T09:16:00.714Z,100034.45
2018-09-20T09:18:28.306Z,100034.27
2018-09-20T09:20:56.224Z,100037.19
2018-09-20T09:23:24.780Z,100029.53
2018-09-20T09:25:53.728Z,100025.87
2018-09-20T09:28:22.824Z,100019.00
2018-09-20T09:30:50.526Z,100018.70
2018-09-20T09:33:18.148Z,100020.34
2018-09-20T09:35:45.989Z,100027.91
2018-09-20T09:38:13.595Z,100022.80
2018-09-20T09:40:41.190Z,100021.84
2018-09-20T09:43:10.698Z,100012.50
2018-09-20T09:45:39.646Z,100000.91
2018-09-20T09:48:07.584Z,100004.17
2018-09-20T09:50:35.606Z,100003.05
2018-09-20T09:53:03.204Z,99997.09
2018-09-20T09:55:30.799Z,100003.88
2018-09-20T09:57:59.344Z,99991.52
2018-09-20T10:00:33.062Z,99993.95
2018-09-20T10:03:00.812Z,99990.61
2018-09-20T10:05:29.625Z,99986.91
2018-09-20T10:07:57.203Z,100000.91
2018-09-20T10:10:24.993Z,99990.50
2018-09-20T10:12:52.897Z,99980.90
2018-09-20T10:15:20.470Z,99987.08
2018-09-20T10:17:48.787Z,99984.95
2018-09-20T10:20:17.216Z,99969.37
2018-09-20T10:22:44.754Z,99977.09
2018-09-20T10:25:12.273Z,99973.47
2018-09-20T10:27:40.197Z,99968.28
2018-09-20T10:30:07.935Z,99974.73
2018-09-20T10:32:35.583Z,99965.63
2018-09-20T10:35:05.723Z,99960.34
2018-09-20T10:37:33.379Z,99956.66
2018-09-20T10:40:01.249Z,99951.02
2018-09-20T10:42:28.841Z,99956.80
2018-09-20T10:44:57.036Z,99956.59
2018-09-20T10:47:24.951Z,99948.45
2018-09-20T10:49:52.489Z,99944.33
2018-09-20T10:52:20.286Z,99956.31
2018-09-20T10:54:48.871Z,99950.29
2018-09-20T10:57:16.410Z,99946.45
2018-09-20T10:59:43.931Z,99945.22
2018-09-20T11:02:12.868Z,99936.89
2018-09-20T11:04:40.934Z,99945.14
2018-09-20T11:07:08.562Z,99942.61
2018-09-20T11:09:37.356Z,99938.41
2018-09-20T11:12:05.849Z,99932.25
2018-09-20T11:14:33.582Z,99924.28
2018-09-20T11:17:01.630Z,99929.23
2018-09-20T11:19:33.779Z,99931.67
2018-09-20T11:22:02.453Z,99920.84
2018-09-20T11:24:30.433Z,99922.16
2018-09-20T11:26:58.858Z,99920.56
2018-09-20T11:29:26.378Z,99926.45
2018-09-20T11:31:56.298Z,99914.03
2018-09-20T11:34:23.869Z,99927.84
2018-09-20T11:36:51.439Z,99928.99
2018-09-20T11:39:19.370Z,99920.84
2018-09-20T11:41:46.930Z,99922.64
2018-09-20T11:44:14.524Z,99921.40
2018-09-20T11:46:43.309Z,99911.16
2018-09-20T11:49:11.037Z,99909.14
2018-09-20T11:51:38.618Z,99902.27
2018-09-20T11:54:07.427Z,99892.41
2018-09-20T11:56:34.994Z,99902.11
2018-09-20T11:59:02.534Z,99894.89
2018-09-20T12:01:30.507Z,99895.27
2018-09-20T12:03:58.346Z,99898.27
2018-09-20T12:06:25.946Z,99903.45
2018-09-20T12:08:58.341Z,99906.35
2018-09-20T12:11:26.877Z,99894.02
2018-09-20T12:13:54.471Z,99889.55
2018-09-20T12:16:22.674Z,99893.58
2018-09-20T12:18:50.272Z,99897.70
2018-09-20T12:21:18.700Z,99884.05
2018-09-20T12:23:47.254Z,99882.45
2018-09-20T12:26:14.860Z,99873.28
2018-09-20T12:28:42.405Z,99876.04
2018-09-20T12:31:11.322Z,99875.55
2018-09-20T12:33:40.569Z,99867.27
2018-09-20T12:36:10.074Z,99865.77
2018-09-20T12:38:39.786Z,99872.39
2018-09-20T12:41:08.437Z,99858.97
2018-09-20T12:43:37.368Z,99856.81
2018-09-20T12:46:05.274Z,99856.11
2018-09-20T12:48:37.531Z,99854.97
2018-09-20T12:51:06.576Z,99851.75
2018-09-20T12:53:37.022Z,99841.89
2018-09-20T12:56:06.797Z,99841.19
2018-09-20T12:58:39.457Z,99834.41
2018-09-20T13:01:08.479Z,99830.27
2018-09-20T13:03:37.542Z,99821.90
2018-09-20T13:06:05.402Z,99837.25
2018-09-20T13:08:34.336Z,99827.69
2018-09-20T13:11:01.883Z,99825.44
2018-09-20T13:13:29.542Z,99823.34
2018-09-20T13:15:58.454Z,99817.73
2018-09-20T13:18:27.414Z,99818.19
2018-09-20T13:20:55.636Z,99814.61
2018-09-20T13:23:23.527Z,99807.17
2018-09-20T13:25:52.657Z,99816.05
2018-09-20T13:28:21.811Z,99810.98
2018-09-20T13:30:50.325Z,99794.41
2018-09-20T13:33:18.476Z,99804.73
2018-09-20T13:35:46.026Z,99793.47
2018-09-20T13:38:13.926Z,99796.21
2018-09-20T13:40:41.646Z,99794.34
2018-09-20T13:43:10.186Z,99782.28
2018-09-20T13:45:39.217Z,99793.93
2018-09-20T13:48:07.633Z,99798.56
2018-09-20T13:50:35.197Z,99797.78
2018-09-20T13:53:03.095Z,99795.83
2018-09-20T13:55:30.710Z,99797.85
2018-09-20T13:57:58.678Z,99791.55
2018-09-20T14:00:26.735Z,99791.36
2018-09-20T14:02:54.360Z,99789.56
2018-09-20T14:05:21.913Z,99775.36
2018-09-20T14:07:49.883Z,99784.45
2018-09-20T14:10:17.521Z,99775.66
2018-09-20T14:12:45.623Z,99772.19
2018-09-20T14:15:13.507Z,99775.45
2018-09-20T14:17:44.961Z,99777.67
2018-09-20T14:20:12.634Z,99770.30
2018-09-20T14:22:41.126Z,99774.51
2018-09-20T14:25:09.064Z,99759.15
2018-09-20T14:27:36.638Z,99760.00
2018-09-20T14:30:14.398Z,99751.70
2018-09-20T14:32:41.935Z,99751.50
2018-09-20T14:35:10.451Z,99749.97
2018-09-20T14:37:39.606Z,99749.02
2018-09-20T14:40:08.981Z,99731.20
2018-09-20T14:42:38.057Z,99737.21
2018-09-20T14:45:07.962Z,99729.11
2018-09-20T14:47:36.466Z,99733.09
2018-09-20T14:50:04.332Z,99730.12
2018-09-20T14:52:33.652Z,99720.64
2018-09-20T14:55:01.205Z,99716.30
2018-09-20T14:57:28.709Z,99708.38
2018-09-20T14:59:59.464Z,99713.62
2018-09-20T15:02:27.137Z,99715.49
2018-09-20T15:04:54.741Z,99703.06
2018-09-20T15:07:24.209Z,99702.00
2018-09-20T15:09:51.766Z,99686.42
2018-09-20T15:12:19.350Z,99692.23
2018-09-20T15:14:54.074Z,99689.58
2018-09-20T15:17:21.629Z,99683.88
2018-09-20T15:19:49.195Z,99680.86
2018-09-20T15:22:24.103Z,99681.05
2018-09-20T15:24:51.655Z,99672.44
2018-09-20T15:27:19.192Z,99681.79
2018-09-20T15:29:51.273Z,99676.97
2018-09-20T15:32:19.640Z,99667.38
2018-09-20T15:34:48.414Z,99662.58
2018-09-20T15:37:17.508Z,99659.09
2018-09-20T15:39:46.352Z,99664.05
2018-09-20T15:42:14.332Z,99659.68
2018-09-20T15:44:42.710Z,99662.61
2018-09-20T15:47:10.791Z,99657.66
2018-09-20T15:49:39.581Z,99651.75
2018-09-20T15:52:09.495Z,99649.56
2018-09-20T15:54:37.125Z,99652.54
2018-09-20T15:57:04.657Z,99647.75
2018-09-20T15:59:32.654Z,99657.05
2018-09-20T16:02:00.200Z,99648.81
2018-09-20T16:04:27.810Z,99648.39
2018-09-20T16:06:59.485Z,99649.13
2018-09-20T16:09:27.050Z,99641.70
2018-09-20T16:11:55.082Z,99643.06
2018-09-20T16:14:23.371Z,99633.78
2018-09-20T16:16:50.953Z,99630.80
2018-09-20T16:19:19.549Z,99628.39
2018-09-20T16:21:48.267Z,99623.78
2018-09-20T16:24:16.673Z,99622.24
2018-09-20T16:26:44.718Z,99628.87
2018-09-20T16:29:13.240Z,99625.17
2018-09-20T16:31:40.842Z,99611.84
2018-09-20T16:34:08.977Z,99605.42
2018-09-20T16:36:36.988Z,99615.06
2018-09-20T16:39:05.519Z,99605.83
2018-09-20T16:41:33.700Z,99607.57
2018-09-20T16:44:01.392Z,99606.76
2018-09-20T16:46:28.960Z,99597.30
2018-09-20T16:48:56.942Z,99592.16
2018-09-20T16:51:24.465Z,99586.47
2018-09-20T16:53:52.067Z,99583.55
2018-09-20T16:56:20.748Z,99587.95
2018-09-20T16:58:50.668Z,99578.47
2018-09-20T17:01:18.324Z,99577.72
2018-09-20T17:03:47.358Z,99573.38
2018-09-20T17:06:14.991Z,99566.58
2018-09-20T17:08:42.536Z,99573.16
2018-09-20T17:11:11.015Z,99569.91
2018-09-20T17:13:38.568Z,99559.91
2018-09-20T17:16:06.972Z,99567.02
2018-09-20T17:18:35.019Z,99572.47
2018-09-20T17:21:03.574Z,99564.80
2018-09-20T17:23:31.162Z,99569.97
2018-09-20T17:26:00.576Z,99566.17
2018-09-20T17:28:29.442Z,99563.94
2018-09-20T17:30:57.842Z,99565.74
2018-09-20T17:33:58.960Z,99559.42
2018-09-20T17:36:27.720Z,99564.18
2018-09-20T17:38:55.471Z,99551.44
2018-09-20T17:41:26.472Z,99560.28
2018-09-20T17:43:56.044Z,99553.44
2018-09-20T17:46:24.225Z,99550.86
2018-09-20T17:48:54.143Z,99552.09
2018-09-20T17:51:21.797Z,99544.75
2018-09-20T17:53:49.378Z,99554.13
2018-09-20T17:56:17.309Z,99551.36
2018-09-20T17:58:45.219Z,99556.41
2018-09-20T18:01:13.445Z,99546.80
2018-09-20T18:03:44.251Z,99551.43
2018-09-20T18:06:11.774Z,99554.39
2018-09-20T18:08:39.370Z,99554.13
2018-09-20T18:11:09.327Z,99547.12
2018-09-20T18:13:36.895Z,99540.77
2018-09-20T18:16:04.458Z,99538.59
2018-09-20T18:18:32.412Z,99536.95
2018-09-20T18:21:04.823Z,99531.84
2018-09-20T18:23:35.233Z,99528.72
2018-09-20T18:26:03.211Z,99522.22
2018-09-20T18:28:31.763Z,99530.47
2018-09-20T18:31:00.818Z,99530.06
2018-09-20T18:33:31.820Z,99524.83
2018-09-20T18:35:59.414Z,99520.87
2018-09-20T18:38:26.942Z,99517.03
2018-09-20T18:40:58.577Z,99527.68
2018-09-20T18:43:27.674Z,99518.06
2018-09-20T18:45:55.275Z,99515.34
2018-09-20T18:48:26.434Z,99526.64
2018-09-20T18:50:54.794Z,99520.26
2018-09-20T18:53:23.430Z,99518.92
2018-09-20T18:55:52.269Z,99519.13
2018-09-20T18:58:20.769Z,99517.98
2018-09-20T19:00:48.830Z,99523.31
2018-09-20T19:03:19.954Z,99523.48
2018-09-20T19:05:47.551Z,99521.48
2018-09-20T19:08:16.136Z,99523.88
2018-09-20T19:10:46.649Z,99526.98
2018-09-20T19:13:17.330Z,99523.81
2018-09-20T19:15:45.335Z,99523.19
2018-09-20T19:18:14.085Z,99514.51
2018-09-20T19:20:41.754Z,99510.20
2018-09-20T19:23:10.346Z,99512.17
2018-09-20T19:25:37.966Z,99511.75
2018-09-20T19:28:06.546Z,99508.83
2018-09-20T19:30:34.510Z,99511.62
2018-09-20T19:33:02.726Z,99509.29
2018-09-20T19:35:32.311Z,99504.57
2018-09-20T19:38:01.137Z,99500.30
2018-09-20T19:40:29.534Z,99502.58
2018-09-20T19:42:57.121Z,99506.20
2018-09-20T19:45:25.191Z,99498.14
2018-09-20T19:47:55.826Z,99495.55
2018-09-20T19:50:27.635Z,99490.42
2018-09-20T19:52:55.643Z,99484.88
2018-09-20T19:55:23.284Z,99488.70
2018-09-20T19:57:51.432Z,99483.81
2018-09-20T20:00:19.549Z,99485.27
2018-09-20T20:05:26.489Z,99476.92
2018-09-20T20:07:54.142Z,99470.53
2018-09-20T20:10:21.730Z,99471.70
2018-09-20T20:12:54.527Z,99467.44
2018-09-20T20:15:23.283Z,99468.31
2018-09-20T20:17:51.508Z,99462.73
2018-09-20T20:20:20.371Z,99456.82
2018-09-20T20:22:47.952Z,99462.02
2018-09-20T20:25:18.499Z,99459.84
2018-09-20T20:27:46.492Z,99456.97
2018-09-20T20:30:14.139Z,99444.22
2018-09-20T20:32:41.777Z,99449.36
2018-09-20T20:35:09.710Z,99444.34
2018-09-20T20:37:37.332Z,99446.84
2018-09-20T20:40:04.903Z,99438.21
2018-09-20T20:42:33.618Z,99430.90
2018-09-20T20:45:02.071Z,99425.06
2018-09-20T20:47:29.674Z,99429.75
2018-09-20T20:49:57.510Z,99419.09
2018-09-20T20:52:25.197Z,99418.46
2018-09-20T20:54:53.677Z,99420.47
2018-09-20T20:57:21.573Z,99413.14
2018-09-20T20:59:49.085Z,99410.53
2018-09-20T21:02:16.668Z,99409.08
2018-09-20T21:04:48.633Z,99403.52
2018-09-20T21:07:16.224Z,99404.13
2018-09-20T21:09:45.440Z,99396.28
2018-09-20T21:12:16.351Z,99391.60
2018-09-20T21:14:44.717Z,99392.86
2018-09-20T21:17:12.381Z,99390.88
2018-09-20T21:19:40.964Z,99382.94
2018-09-20T21:22:08.683Z,99377.64
2018-09-20T21:24:36.509Z,99382.45
2018-09-20T21:27:05.279Z,99377.44
2018-09-20T21:29:33.621Z,99378.17
2018-09-20T21:32:02.177Z,99372.44
2018-09-20T21:34:33.215Z,99376.31
2018-09-20T21:37:01.028Z,99374.10
2018-09-20T21:39:29.533Z,99378.38
2018-09-20T21:42:04.605Z,99370.47
2018-09-20T21:44:36.769Z,99355.20
2018-09-20T21:47:04.331Z,99355.33
2018-09-20T21:49:37.723Z,99350.00
2018-09-20T21:52:05.323Z,99345.31
2018-09-20T21:54:36.586Z,99340.91
2018-09-20T21:57:04.517Z,99343.63
2018-09-20T21:59:33.215Z,99345.48
2018-09-20T22:02:02.946Z,99339.45
2018-09-20T22:04:31.659Z,99336.42
2018-09-20T22:06:59.884Z,99333.51
2018-09-20T22:09:27.473Z,99331.09
2018-09-20T22:12:01.298Z,99320.55
2018-09-20T22:14:30.278Z,99327.34
2018-09-20T22:16:57.841Z,99318.89
2018-09-20T22:19:25.815Z,99320.08
2018-09-20T22:21:54.328Z,99317.13
2018-09-20T22:24:21.926Z,99306.81
2018-09-20T22:26:49.922Z,99304.61
2018-09-20T22:29:17.525Z,99305.15
2018-09-20T22:31:45.755Z,99300.09
2018-09-20T22:34:14.924Z,99299.99
2018-09-20T22:36:42.524Z,99300.13
2018-09-20T22:39:10.990Z,99292.19
2018-09-20T22:41:38.845Z,99284.79
2018-09-20T22:44:09.410Z,99278.20
2018-09-20T22:46:36.987Z,99278.95
2018-09-20T22:49:05.940Z,99270.50
2018-09-20T22:51:33.478Z,99263.18
2018-09-20T22:54:01.037Z,99264.77
2018-09-20T22:56:28.575Z,99255.98
2018-09-20T22:58:56.539Z,99254.33
2018-09-20T23:01:24.106Z,99249.75
2018-09-20T23:03:51.647Z,99249.44
2018-09-20T23:06:19.558Z,99242.97
2018-09-20T23:08:47.070Z,99244.09
2018-09-20T23:11:15.263Z,99233.23
2018-09-20T23:13:43.611Z,99237.30
2018-09-20T23:16:11.526Z,99226.89
2018-09-20T23:18:39.246Z,99221.16
2018-09-20T23:21:07.401Z,99220.41
2018-09-20T23:23:34.998Z,99220.41
2018-09-20T23:26:07.741Z,99216.34
2018-09-20T23:28:35.547Z,99221.16
2018-09-20T23:31:03.095Z,99216.03
2018-09-20T23:33:30.676Z,99217.09
2018-09-20T23:35:58.323Z,99223.27
2018-09-20T23:38:28.162Z,99217.94
2018-09-20T23:40:55.698Z,99209.19
2018-09-20T23:43:23.314Z,99209.29
2018-09-20T23:45:51.266Z,99207.02
2018-09-20T23:48:18.850Z,99199.72
2018-09-20T23:50:46.423Z,99197.75
2018-09-20T23:53:14.516Z,99200.05
2018-09-20T23:55:42.043Z,99198.59
2018-09-20T23:58:10.363Z,99193.91
